This demonstration page uses our WeatherBlox Daily Observations layout. Learn more.

Left ArrowRight Arrow

Hourly Observations for August 12, 2015

Temp ( °F °C ) Dew Point ( °F °C ) Humidity (%) Winds ( mph kmh ) Pressure ( in mb ) Visibility ( mi km ) Precip ( " mm )
12:54 am 00:54 Clear 67 19.4 62 16.7 84 84 Calm 30.19 1023 10 16.0934 0 0
1:54 am 01:54 Clear 68 20 63 17.2 84 84 Calm 30.19 1023 10 16.0934 0 0
2:54 am 02:54 Clear 64 17.8 62 16.7 93 93 Calm 30.2 1023 10 16.0934 0 0
3:54 am 03:54 Clear 63 17.2 61 16.1 93 93 Calm 30.19 1023 10 16.0934 0 0
4:54 am 04:54 Clear 62 16.7 60 15.6 93 93 Calm 30.19 1022 10 16.0934 0 0
5:54 am 05:54 Clear 61 16.1 60 15.6 97 97 Calm 30.2 1023 10 16.0934 0 0
6:54 am 06:54 Sunny 61 16.1 59 15 93 93 Calm 30.2 1023 10 16.0934 0 0
7:54 am 07:54 Sunny 66 18.9 62 16.7 87 87 Calm 30.22 1023 9 14.48406 0 0
8:54 am 08:54 Sunny 71 21.7 63 17.2 76 76 Calm 30.22 1024 10 16.0934 0 0
9:54 am 09:54 Sunny 78 25.6 65 18.3 64 64 SW 7 11 30.22 1023 10 16.0934 0 0
10:54 am 10:54 Sunny 81 27.2 63 17.2 54 54 S 8 13 30.22 1023 10 16.0934 0 0
11:54 am 11:54 Sunny 84 28.9 63 17.2 49 49 SW 9 15 30.21 1023 10 16.0934 0 0
12:54 pm 12:54 Partly Cloudy 83 28.3 61 16.1 48 48 SSW 12 19 30.19 1022 10 16.0934 0 0
1:54 pm 13:54 Partly Cloudy 86 30 61 16.1 43 43 S 6 9 30.17 1022 10 16.0934 0 0
2:54 pm 14:54 Sunny 87 30.6 60 15.6 40 40 SSW 12 19 30.15 1021 10 16.0934 0 0
3:54 pm 15:54 Sunny 87 30.6 60 15.6 40 40 SSW 9 15 30.14 1021 10 16.0934 0 0
4:54 pm 16:54 Sunny 87 30.6 59 15 39 39 VRB 7 11 30.12 1020 10 16.0934 0 0
5:54 pm 17:54 Sunny 86 30 60 15.6 42 42 S 10 17 30.11 1020 10 16.0934 0 0
6:54 pm 18:54 Sunny 85 29.4 59 15 42 42 S 9 15 30.1 1019 10 16.0934 0 0
7:54 pm 19:54 Sunny 81 27.2 61 16.1 51 51 S 8 13 30.08 1019 10 16.0934 0 0
8:54 pm 20:54 Clear 75 23.9 61 16.1 62 62 S 7 11 30.09 1019 10 16.0934 0 0
9:54 pm 21:54 Clear 72 22.2 62 16.7 71 71 S 7 11 30.1 1019 10 16.0934 0 0
10:54 pm 22:54 Clear 71 21.7 62 16.7 73 73 S 7 11 30.11 1020 10 16.0934 0 0
11:54 pm 23:54 Clear 68 20 63 17.2 84 84 S 8 13 30.1 1019 10 16.0934 0 0

Powered by AerisWeather